Time;durP1;ratioP1;P1;durP2;ratioP2;P2;SDS_P1;SDS_P2;PMS_P1;PMS_P2;Temp;Humidity;BMP_temperature;BMP_pressure;BME280_temperature;BME280_humidity;BME280_pressure;Samples;Min_cycle;Max_cycle;Signal;HPM_P1;HPM_P2
2022/12/07 00:01:38;;;;;;;;;67.75;55.50;;;;;3.75;84.67;101250.75;5080094;27;45502;-74
2022/12/07 00:04:05;;;;;;;;;59.00;50.00;;;;;3.75;85.27;101250.75;5080098;27;47143;-75
2022/12/07 00:06:39;;;;;;;;;65.75;53.75;;;;;3.72;85.20;101251.66;5079842;27;45306;-72
2022/12/07 00:09:06;;;;;;;;;64.50;50.75;;;;;3.72;85.22;101258.56;5080148;28;45333;-74
2022/12/07 00:11:31;;;;;;;;;54.25;46.25;;;;;3.69;84.45;101251.63;5079967;27;45512;-72
2022/12/07 00:14:00;;;;;;;;;66.75;53.50;;;;;3.64;84.63;101246.44;5079983;27;45404;-71
2022/12/07 00:16:28;;;;;;;;;67.25;54.75;;;;;3.59;85.09;101237.78;5080316;27;45454;-71
2022/12/07 00:18:54;;;;;;;;;66.75;53.50;;;;;3.61;85.45;101242.97;5095958;27;45333;-73
2022/12/07 00:21:23;;;;;;;;;65.50;52.50;;;;;3.57;85.20;101249.03;5080203;27;45459;-74
2022/12/07 00:23:50;;;;;;;;;70.00;55.25;;;;;3.52;84.69;101246.44;5080035;27;45358;-75
2022/12/07 00:26:19;;;;;;;;;62.50;52.00;;;;;3.50;84.78;101245.59;5082140;27;45480;-73
2022/12/07 00:28:46;;;;;;;;;62.25;51.00;;;;;3.47;85.38;101242.97;5082992;27;45222;-75
2022/12/07 00:31:13;;;;;;;;;64.00;53.00;;;;;3.41;84.71;101233.44;5081973;28;45346;-74
2022/12/07 00:33:38;;;;;;;;;63.25;53.25;;;;;3.42;85.14;101235.16;5083048;27;46320;-73
2022/12/07 00:36:07;;;;;;;;;63.50;52.00;;;;;3.22;85.48;101197.03;5082754;27;45318;-74
2022/12/07 00:38:35;;;;;;;;;70.00;54.25;;;;;3.31;85.57;101203.97;5080521;27;45307;-73
2022/12/07 00:41:06;;;;;;;;;59.25;49.25;;;;;3.56;85.47;101234.28;5080618;27;45568;-75
2022/12/07 00:43:32;;;;;;;;;66.75;54.00;;;;;3.54;85.33;101234.31;5078337;27;45316;-74
2022/12/07 00:45:58;;;;;;;;;60.50;50.25;;;;;3.61;85.34;101246.44;5079791;27;46195;-74
2022/12/07 00:48:23;;;;;;;;;64.50;51.50;;;;;3.60;85.26;101228.22;5095527;27;45319;-76
2022/12/07 00:50:50;;;;;;;;;66.00;53.25;;;;;3.53;84.55;101211.75;5096461;27;45291;-73
2022/12/07 00:53:16;;;;;;;;;64.75;53.50;;;;;3.68;84.97;101236.03;5096065;27;46160;-70
2022/12/07 00:55:42;;;;;;;;;66.75;53.75;;;;;3.64;84.67;101225.63;5079674;27;45427;-76
2022/12/07 00:58:08;;;;;;;;;63.25;52.25;;;;;3.65;84.03;101235.16;5078431;27;45466;-72
2022/12/07 01:00:36;;;;;;;;;64.00;53.00;;;;;3.61;84.57;101224.75;5079742;27;45497;-75
2022/12/07 01:03:02;;;;;;;;;65.75;53.50;;;;;3.63;84.13;101229.09;5079511;28;45443;-72
2022/12/07 01:05:28;;;;;;;;;64.00;53.75;;;;;3.67;84.55;101234.28;5078351;28;45263;-75
2022/12/07 01:07:54;;;;;;;;;61.25;51.50;;;;;3.65;84.16;101219.56;5079431;27;45285;-74
2022/12/07 01:10:19;;;;;;;;;62.25;52.00;;;;;3.68;84.26;101218.66;5077446;28;45306;-71
2022/12/07 01:12:45;;;;;;;;;62.50;51.25;;;;;3.69;84.04;101225.59;5079297;27;46427;-71
2022/12/07 01:15:11;;;;;;;;;55.25;46.75;;;;;3.70;83.75;101213.47;5080370;27;45266;-75
2022/12/07 01:17:36;;;;;;;;;50.50;42.50;;;;;3.67;84.42;101214.34;5079462;27;45432;-72
2022/12/07 01:20:03;;;;;;;;;62.75;49.00;;;;;3.67;84.39;101216.09;5078600;27;45326;-73
2022/12/07 01:22:28;;;;;;;;;60.75;49.50;;;;;3.65;84.14;101222.16;5078031;27;46443;-71
2022/12/07 01:24:53;;;;;;;;;56.75;47.00;;;;;3.64;84.41;101222.16;5079193;27;45397;-75
2022/12/07 01:27:19;;;;;;;;;65.25;53.25;;;;;3.65;84.38;101219.56;5078955;27;45514;-72
2022/12/07 01:29:44;;;;;;;;;63.75;52.00;;;;;3.63;84.90;101216.09;5078771;27;45593;-70
2022/12/07 01:32:10;;;;;;;;;66.00;52.00;;;;;3.55;84.40;101207.44;5077261;27;45315;-69
2022/12/07 01:34:36;;;;;;;;;60.25;50.25;;;;;3.61;84.73;101212.63;5077943;27;45319;-71
2022/12/07 01:37:01;;;;;;;;;65.75;53.25;;;;;3.58;84.49;101204.81;5078233;27;45329;-73
2022/12/07 01:39:26;;;;;;;;;61.00;50.50;;;;;3.41;84.52;101171.00;5079245;27;45318;-71
2022/12/07 01:41:52;;;;;;;;;67.25;54.50;;;;;3.64;84.92;101206.53;5078023;27;46218;-70
2022/12/07 01:44:32;;;;;;;;;62.75;51.50;;;;;3.67;85.16;101210.88;5077740;27;45372;-72
2022/12/07 01:47:00;;;;;;;;;61.25;50.50;;;;;3.68;85.19;101210.88;5079953;27;45383;-74
2022/12/07 01:49:40;;;;;;;;;60.00;49.75;;;;;3.68;84.44;101208.25;5079474;27;45334;-75
2022/12/07 01:52:31;;;;;;;;;66.50;54.00;;;;;3.69;84.57;101206.53;5079403;27;45365;-73
2022/12/07 01:55:04;;;;;;;;;65.75;55.00;;;;;3.66;84.88;101207.41;5077579;27;45276;-74
2022/12/07 01:57:32;;;;;;;;;65.00;53.50;;;;;3.62;84.63;101214.34;5078053;27;45371;-71
2022/12/07 01:59:59;;;;;;;;;62.50;52.25;;;;;3.54;84.42;101194.41;5078274;27;45215;-74
2022/12/07 02:02:49;;;;;;;;;66.00;54.00;;;;;3.49;84.29;101204.84;5077099;27;46393;-72
2022/12/07 02:05:17;;;;;;;;;65.25;51.75;;;;;3.47;84.20;101201.38;5077715;27;45398;-73
2022/12/07 02:07:42;;;;;;;;;66.25;54.25;;;;;3.43;84.50;101197.88;5078949;27;45295;-72
2022/12/07 02:10:17;;;;;;;;;65.00;53.25;;;;;3.44;84.86;101202.22;5078226;27;45576;-74
2022/12/07 02:12:46;;;;;;;;;63.25;52.00;;;;;3.36;84.57;101199.63;5077749;27;45293;-70
2022/12/07 02:15:13;;;;;;;;;60.00;49.50;;;;;3.32;84.57;101204.81;5077430;27;45403;-73
2022/12/07 02:17:55;;;;;;;;;62.00;52.00;;;;;3.26;84.93;101208.31;5077571;28;45405;-72
2022/12/07 02:20:33;;;;;;;;;61.00;50.25;;;;;3.25;84.55;101208.28;5077727;27;45315;-72
2022/12/07 02:23:17;;;;;;;;;66.25;53.25;;;;;3.18;85.26;101210.91;5076904;27;45516;-74
2022/12/07 02:26:23;;;;;;;;;62.75;52.50;;;;;3.10;85.08;101212.63;5077634;27;45334;-72
2022/12/07 02:29:24;;;;;;;;;60.75;50.00;;;;;3.09;85.30;101208.28;5080562;27;45391;-72
2022/12/07 02:31:56;;;;;;;;;63.50;53.00;;;;;3.09;84.91;101205.69;5097703;27;45667;-73
2022/12/07 02:34:21;;;;;;;;;64.50;54.00;;;;;3.07;85.05;101197.88;5080841;27;45586;-72
2022/12/07 02:36:54;;;;;;;;;61.50;51.00;;;;;3.07;85.37;101203.06;5078473;27;45295;-75
2022/12/07 02:39:34;;;;;;;;;56.50;48.00;;;;;3.03;85.43;101193.53;5078510;27;45440;-73
2022/12/07 02:42:09;;;;;;;;;54.50;47.25;;;;;2.99;85.52;101185.75;5077770;28;45482;-71
2022/12/07 02:44:36;;;;;;;;;62.00;51.50;;;;;2.99;84.94;101188.34;5077795;27;45300;-71
2022/12/07 02:47:05;;;;;;;;;63.25;52.75;;;;;2.97;84.91;101187.47;5075572;28;45413;-73
2022/12/07 02:49:31;;;;;;;;;64.75;54.00;;;;;3.03;85.05;101200.47;5075747;28;45383;-74
2022/12/07 02:51:57;;;;;;;;;60.25;48.25;;;;;3.03;85.94;101201.34;5078430;27;45446;-76
2022/12/07 02:54:23;;;;;;;;;60.75;52.25;;;;;3.02;85.86;101196.16;5078833;27;46129;-73
2022/12/07 02:56:51;;;;;;;;;64.00;52.50;;;;;3.02;85.94;101202.19;5077942;27;45238;-74
2022/12/07 02:59:38;;;;;;;;;60.25;50.75;;;;;3.05;85.44;101198.75;5076447;27;45310;-74
2022/12/07 03:02:34;;;;;;;;;60.50;50.25;;;;;3.04;85.66;101194.41;5077921;28;45401;-73
2022/12/07 03:05:19;;;;;;;;;66.00;55.00;;;;;3.03;85.02;101195.28;5077569;28;45369;-72
2022/12/07 03:07:50;;;;;;;;;58.50;48.25;;;;;3.01;85.50;101197.88;5077743;27;45544;-73
2022/12/07 03:10:24;;;;;;;;;58.75;48.75;;;;;3.02;84.85;101197.00;5077059;27;45426;-75
2022/12/07 03:13:10;;;;;;;;;57.00;49.50;;;;;2.86;86.08;101157.16;5077656;27;45185;-74
2022/12/07 03:15:46;;;;;;;;;58.25;48.50;;;;;3.01;85.43;101181.44;5077196;27;45250;-76
2022/12/07 03:18:15;;;;;;;;;55.50;47.75;;;;;3.03;86.08;101188.34;5077969;27;45246;-75
2022/12/07 03:20:44;;;;;;;;;57.75;48.25;;;;;3.03;85.97;101185.75;5078701;27;45303;-74
2022/12/07 03:23:12;;;;;;;;;54.25;47.00;;;;;3.03;86.15;101171.91;5096791;27;45413;-73
2022/12/07 03:25:47;;;;;;;;;48.75;42.50;;;;;3.02;85.85;101178.81;5079844;27;45292;-73
2022/12/07 03:28:16;;;;;;;;;55.25;45.25;;;;;3.02;86.12;101171.00;5096164;27;45368;-73
2022/12/07 03:30:55;;;;;;;;;52.50;45.25;;;;;3.01;85.03;101184.03;5080708;27;45417;-71
2022/12/07 03:33:43;;;;;;;;;56.50;47.00;;;;;2.99;86.00;101168.41;5080189;27;45290;-69
2022/12/07 03:36:23;;;;;;;;;55.75;45.25;;;;;2.97;85.25;101175.34;5079116;27;46202;-70
2022/12/07 03:38:57;;;;;;;;;51.75;42.50;;;;;2.93;85.64;101163.22;5078775;28;45304;-70
2022/12/07 03:41:26;;;;;;;;;47.25;41.25;;;;;2.94;85.60;101166.69;5082848;27;45342;-70
2022/12/07 03:43:54;;;;;;;;;52.75;43.50;;;;;2.90;85.77;101163.22;5081225;27;45369;-75
2022/12/07 03:46:55;;;;;;;;;55.00;44.75;;;;;2.88;85.45;101165.81;5079716;27;45487;-74
2022/12/07 03:49:50;;;;;;;;;55.25;47.00;;;;;2.86;85.08;101164.94;5063503;27;45412;-72
2022/12/07 03:52:37;;;;;;;;;50.00;44.25;;;;;2.84;85.26;101164.09;5079865;28;45341;-76
2022/12/07 03:55:23;;;;;;;;;50.50;44.00;;;;;2.81;84.74;101166.69;5080238;28;45390;-71
2022/12/07 03:57:53;;;;;;;;;51.00;44.00;;;;;2.76;85.65;101158.00;5080103;27;45260;-74
2022/12/07 04:00:19;;;;;;;;;40.25;38.00;;;;;2.76;85.86;101161.47;5079976;27;45231;-71
2022/12/07 04:02:44;;;;;;;;;52.50;44.50;;;;;2.66;85.68;101149.31;5080267;27;45374;-71
2022/12/07 04:05:10;;;;;;;;;52.25;44.50;;;;;2.69;85.64;101157.13;5079972;27;45276;-70
2022/12/07 04:07:35;;;;;;;;;47.00;42.50;;;;;2.68;85.46;101152.78;5080202;27;46777;-73
2022/12/07 04:10:01;;;;;;;;;55.00;44.00;;;;;2.72;85.72;101162.31;5080390;27;45404;-73
2022/12/07 04:12:26;;;;;;;;;49.75;44.25;;;;;2.73;85.56;101164.06;5080430;27;45328;-77
2022/12/07 04:14:51;;;;;;;;;46.00;40.50;;;;;2.71;85.37;101157.16;5080454;27;45468;-72
2022/12/07 04:17:17;;;;;;;;;9.75;6.25;;;;;2.71;85.63;101162.34;5079945;27;46198;-75
2022/12/07 04:19:42;;;;;;;;;49.00;43.25;;;;;2.65;84.65;101149.31;5078417;28;45485;-74
2022/12/07 04:22:08;;;;;;;;;45.75;40.75;;;;;2.74;84.94;101157.16;5079813;28;45451;-74
2022/12/07 04:24:34;;;;;;;;;53.75;43.00;;;;;2.74;84.96;101158.00;5080070;27;45297;-71
2022/12/07 04:27:00;;;;;;;;;44.00;40.50;;;;;2.72;84.95;101153.69;5081912;28;45326;-73
2022/12/07 04:29:25;;;;;;;;;42.50;39.50;;;;;2.76;84.41;101156.28;5081129;27;45339;-71
2022/12/07 04:31:51;;;;;;;;;46.25;41.50;;;;;2.78;84.29;101158.88;5081602;27;45343;-75
2022/12/07 04:34:18;;;;;;;;;48.50;42.25;;;;;2.75;85.04;101157.13;5080852;27;45246;-74
2022/12/07 04:36:44;;;;;;;;;40.00;36.25;;;;;2.73;85.24;101160.59;5079044;27;45866;-74
2022/12/07 04:39:25;;;;;;;;;45.75;39.50;;;;;2.76;85.17;101155.41;5078948;27;45421;-74
2022/12/07 04:41:50;;;;;;;;;47.50;42.00;;;;;2.73;84.04;101163.22;5078927;27;45351;-73
2022/12/07 04:44:17;;;;;;;;;51.25;42.25;;;;;2.66;84.61;101158.88;5078837;27;45544;-73
2022/12/07 04:46:43;;;;;;;;;42.50;39.75;;;;;2.61;84.72;101156.25;5078706;27;47121;-70
2022/12/07 04:49:09;;;;;;;;;45.50;41.00;;;;;2.55;85.45;101145.84;5079060;27;45351;-72
2022/12/07 04:51:35;;;;;;;;;35.75;32.75;;;;;2.54;84.77;101155.34;5079434;27;45291;-74
2022/12/07 04:54:00;;;;;;;;;51.00;43.00;;;;;2.53;85.10;101158.81;5079777;28;45503;-72
2022/12/07 04:56:25;;;;;;;;;39.75;38.50;;;;;2.57;85.66;101152.75;5080388;27;46564;-69
2022/12/07 04:58:52;;;;;;;;;52.50;44.00;;;;;2.61;85.24;101153.66;5079526;27;45254;-71
2022/12/07 05:01:18;;;;;;;;;42.00;38.50;;;;;2.65;85.23;101151.91;5080520;27;45421;-72
2022/12/07 05:03:44;;;;;;;;;41.00;38.25;;;;;2.74;85.71;101147.59;5079630;27;45606;-74
2022/12/07 05:06:10;;;;;;;;;39.00;38.00;;;;;2.79;85.08;101152.81;5078676;28;45624;-73
2022/12/07 05:08:36;;;;;;;;;35.00;33.75;;;;;2.78;84.74;101145.88;5078443;27;45341;-74
2022/12/07 05:11:02;;;;;;;;;43.00;38.50;;;;;2.71;84.89;101149.34;5079429;27;45377;-70
2022/12/07 05:13:28;;;;;;;;;41.75;38.75;;;;;2.80;85.41;101157.16;5078542;27;45612;-72
2022/12/07 05:15:53;;;;;;;;;41.25;38.75;;;;;2.74;84.65;101145.00;5075953;27;46313;-69
2022/12/07 05:18:19;;;;;;;;;39.00;36.25;;;;;2.78;84.88;101145.88;5077474;27;45290;-69
2022/12/07 05:20:45;;;;;;;;;40.00;38.50;;;;;2.88;84.96;101159.75;5077731;27;45310;-71
2022/12/07 05:23:11;;;;;;;;;41.25;38.25;;;;;2.92;85.84;101161.47;5079261;27;45369;-69
2022/12/07 05:25:36;;;;;;;;;39.00;37.75;;;;;2.96;84.94;101163.22;5077816;27;46631;-70
2022/12/07 05:28:02;;;;;;;;;40.75;37.50;;;;;3.00;84.78;101166.69;5077711;27;45604;-71
2022/12/07 05:30:27;;;;;;;;;42.75;39.00;;;;;3.04;85.16;101163.22;5077992;27;45352;-70
2022/12/07 05:32:53;;;;;;;;;40.50;37.50;;;;;3.10;84.53;101162.34;5078079;27;45330;-71
2022/12/07 05:35:18;;;;;;;;;44.75;39.50;;;;;3.10;84.19;101159.75;5077607;27;45395;-73
2022/12/07 05:37:44;;;;;;;;;40.00;37.75;;;;;3.16;84.62;101162.34;5078414;27;45313;-75
2022/12/07 05:40:11;;;;;;;;;43.50;39.25;;;;;3.18;85.12;101155.41;5078679;27;45353;-75
2022/12/07 05:42:37;;;;;;;;;42.75;39.25;;;;;3.12;84.06;101152.81;5079695;28;45465;-73
2022/12/07 05:45:03;;;;;;;;;43.25;35.25;;;;;3.11;84.49;101151.97;5078290;27;47685;-73
2022/12/07 05:47:29;;;;;;;;;42.00;38.00;;;;;3.18;84.64;101152.81;5078301;27;45365;-75
2022/12/07 05:49:54;;;;;;;;;38.75;37.50;;;;;3.23;84.22;101153.72;5078828;27;45254;-75
2022/12/07 05:52:20;;;;;;;;;36.50;35.75;;;;;3.27;85.02;101150.25;5078596;27;45251;-72
2022/12/07 05:54:45;;;;;;;;;36.00;35.50;;;;;3.31;84.24;101156.28;5078909;27;46589;-73
2022/12/07 05:57:10;;;;;;;;;38.00;35.75;;;;;3.27;83.87;101151.97;5077986;28;45304;-74
2022/12/07 05:59:36;;;;;;;;;43.00;38.00;;;;;3.29;84.18;101161.50;5077963;27;45308;-74
2022/12/07 06:02:08;;;;;;;;;39.75;37.50;;;;;3.28;84.49;101154.56;5075471;27;45382;-76
2022/12/07 06:04:40;;;;;;;;;40.00;37.00;;;;;3.26;84.08;101156.31;5076401;28;45390;-73
2022/12/07 06:07:05;;;;;;;;;39.75;38.00;;;;;3.15;84.50;101132.03;5076971;28;45381;-72
2022/12/07 06:09:31;;;;;;;;;48.25;41.50;;;;;3.28;84.74;101146.78;5080339;27;45328;-73
2022/12/07 06:14:42;;;;;;;;;45.00;40.50;;;;;3.38;85.18;101150.22;5077679;27;45881;-70
2022/12/07 06:17:07;;;;;;;;;46.00;39.75;;;;;3.42;84.70;101151.09;5077487;27;45467;-74
2022/12/07 06:19:33;;;;;;;;;46.50;40.00;;;;;3.44;84.67;101151.94;5078690;27;45161;-74
2022/12/07 06:21:59;;;;;;;;;44.00;39.75;;;;;3.48;84.58;101156.28;5078602;27;45279;-72
2022/12/07 06:24:24;;;;;;;;;41.00;37.75;;;;;3.45;84.06;101143.28;5076966;27;45372;-72
2022/12/07 06:26:50;;;;;;;;;43.75;38.25;;;;;3.53;84.14;101148.44;5080756;27;45185;-69
2022/12/07 06:29:16;;;;;;;;;44.25;38.75;;;;;3.51;84.30;101151.06;5078681;27;45390;-72
2022/12/07 06:31:41;;;;;;;;;44.00;38.75;;;;;3.41;83.67;101136.34;5077735;27;45579;-72
2022/12/07 06:34:10;;;;;;;;;37.75;35.25;;;;;3.48;84.34;101144.13;5078233;27;45298;-72
2022/12/07 06:36:36;;;;;;;;;43.25;39.00;;;;;3.50;84.61;101147.59;5077646;27;45428;-74
2022/12/07 06:39:02;;;;;;;;;45.25;40.00;;;;;3.54;84.38;101148.47;5077237;27;45403;-72
2022/12/07 06:41:28;;;;;;;;;49.25;42.75;;;;;3.61;84.21;101146.69;5078337;27;45346;-74
2022/12/07 06:43:53;;;;;;;;;47.00;38.25;;;;;3.60;84.70;101137.16;5076365;27;46170;-74
2022/12/07 06:46:19;;;;;;;;;36.50;35.75;;;;;3.68;83.96;101145.81;5076958;27;45367;-76
2022/12/07 06:48:44;;;;;;;;;28.50;28.50;;;;;3.70;83.73;101151.03;5077091;27;45321;-73
2022/12/07 06:51:10;;;;;;;;;42.50;39.00;;;;;3.78;83.81;101155.34;5078410;27;45306;-72
2022/12/07 06:53:36;;;;;;;;;40.75;37.50;;;;;3.82;83.92;101165.75;5076958;28;46067;-74
2022/12/07 06:56:01;;;;;;;;;39.75;37.50;;;;;3.86;83.48;101160.53;5076019;27;45622;-75
2022/12/07 06:58:27;;;;;;;;;42.00;38.00;;;;;3.89;84.03;101159.66;5079455;28;45295;-73
2022/12/07 07:00:52;;;;;;;;;38.75;37.00;;;;;3.91;83.41;101157.91;5080131;27;45583;-71
2022/12/07 07:03:18;;;;;;;;;39.75;36.50;;;;;3.88;83.48;101156.19;5077573;27;45392;-70
2022/12/07 07:05:44;;;;;;;;;38.50;36.50;;;;;3.87;83.65;101158.81;5077178;27;45384;-74
2022/12/07 07:08:11;;;;;;;;;44.50;38.50;;;;;3.87;83.45;101151.00;5076861;27;45318;-74
2022/12/07 07:10:37;;;;;;;;;33.75;33.50;;;;;3.91;82.73;101163.97;5076947;27;45374;-76
2022/12/07 07:13:02;;;;;;;;;32.25;30.25;;;;;3.92;83.17;101164.84;5076021;27;46082;-74
2022/12/07 07:15:28;;;;;;;;;29.75;28.50;;;;;3.92;83.23;101157.91;5078245;27;45406;-74
2022/12/07 07:17:53;;;;;;;;;36.25;34.50;;;;;3.90;82.81;101151.84;5077282;27;45830;-71
2022/12/07 07:20:19;;;;;;;;;30.00;30.00;;;;;3.93;82.76;101159.63;5076414;27;45386;-75
2022/12/07 07:22:44;;;;;;;;;37.75;35.50;;;;;3.93;82.52;101156.19;5076194;27;46380;-75
2022/12/07 07:25:10;;;;;;;;;41.00;37.75;;;;;3.94;83.17;101157.91;5076657;28;45335;-76
2022/12/07 07:27:35;;;;;;;;;38.25;37.00;;;;;3.88;82.78;101145.75;5077641;27;45218;-75
2022/12/07 07:30:00;;;;;;;;;32.75;31.75;;;;;3.72;82.38;101120.66;5076754;27;45657;-75
2022/12/07 07:32:26;;;;;;;;;36.00;35.25;;;;;3.95;82.55;101163.09;5075626;27;45430;-75
2022/12/07 07:34:52;;;;;;;;;28.75;28.75;;;;;3.95;82.42;101168.31;5075887;27;45342;-76
2022/12/07 07:37:17;;;;;;;;;38.50;37.00;;;;;3.94;82.58;101165.72;5075630;27;45520;-70
2022/12/07 07:39:43;;;;;;;;;34.00;33.00;;;;;3.91;82.65;101163.13;5075754;27;45401;-72
2022/12/07 07:42:08;;;;;;;;;42.50;38.75;;;;;3.90;82.95;101161.41;5074961;27;56340;-75
2022/12/07 07:44:34;;;;;;;;;32.50;32.50;;;;;3.93;83.01;101156.19;5075305;27;45376;-76
2022/12/07 07:47:00;;;;;;;;;33.75;33.75;;;;;3.96;83.16;101163.97;5092189;27;45431;-75
2022/12/07 07:49:26;;;;;;;;;33.00;33.00;;;;;3.98;82.72;101164.84;5076406;27;45408;-76
2022/12/07 07:51:51;;;;;;;;;36.00;35.00;;;;;3.99;82.61;101157.88;5076014;27;45364;-75
2022/12/07 07:54:16;;;;;;;;;35.50;34.25;;;;;4.00;82.41;101157.00;5075148;27;45526;-75
2022/12/07 07:56:42;;;;;;;;;42.75;37.25;;;;;4.02;83.07;101144.84;5074890;27;45296;-72
2022/12/07 07:59:08;;;;;;;;;47.50;41.75;;;;;4.07;83.08;101161.31;5075466;27;45549;-76
2022/12/07 08:01:33;;;;;;;;;35.75;34.50;;;;;4.12;82.73;101163.91;5076046;28;47053;-75
2022/12/07 08:03:59;;;;;;;;;50.00;40.75;;;;;4.15;82.91;101169.97;5074996;27;45157;-72
2022/12/07 08:06:24;;;;;;;;;43.75;37.75;;;;;4.18;83.05;101171.69;5075583;27;45270;-76
2022/12/07 08:08:49;;;;;;;;;35.75;34.75;;;;;4.20;82.53;101160.38;5078364;27;45248;-75
2022/12/07 08:11:15;;;;;;;;;43.00;37.75;;;;;4.22;82.57;101171.66;5078456;27;46574;-75
2022/12/07 08:13:40;;;;;;;;;39.00;37.25;;;;;4.17;82.69;101160.41;5080801;27;45410;-75
2022/12/07 08:16:09;;;;;;;;;37.25;35.25;;;;;4.23;82.30;101172.53;5077772;28;45691;-72
2022/12/07 08:18:36;;;;;;;;;37.50;35.75;;;;;4.26;82.22;101172.53;5079090;27;45630;-74
2022/12/07 08:21:02;;;;;;;;;34.50;34.00;;;;;4.27;82.18;101176.03;5076499;27;48241;-73
2022/12/07 08:23:28;;;;;;;;;37.25;35.00;;;;;4.22;82.05;101176.88;5077687;27;45243;-74
2022/12/07 08:25:53;;;;;;;;;38.00;35.75;;;;;4.23;81.94;101183.81;5076615;27;45342;-75
2022/12/07 08:28:18;;;;;;;;;37.00;34.50;;;;;4.21;81.83;101177.75;5078191;27;45191;-75
2022/12/07 08:30:44;;;;;;;;;43.75;38.75;;;;;4.22;82.06;101178.63;5078153;27;45987;-73
2022/12/07 08:33:10;;;;;;;;;28.50;28.50;;;;;4.26;81.80;101182.94;5079120;27;45364;-73
2022/12/07 08:35:36;;;;;;;;;39.00;35.00;;;;;4.26;81.91;101188.16;5078545;27;45374;-71
2022/12/07 08:38:02;;;;;;;;;39.00;36.75;;;;;4.27;81.80;101189.03;5077618;27;45506;-75
2022/12/07 08:40:28;;;;;;;;;38.50;37.25;;;;;4.26;81.43;101184.72;5079429;27;46924;-75
2022/12/07 08:42:53;;;;;;;;;40.00;36.75;;;;;4.22;81.69;101181.22;5078051;27;45932;-74
2022/12/07 08:45:20;;;;;;;;;37.25;36.25;;;;;4.31;81.25;101191.59;5078172;27;45376;-71
2022/12/07 08:47:57;;;;;;;;;37.25;35.25;;;;;4.28;81.58;101193.38;5078720;27;45591;-73
2022/12/07 08:50:23;;;;;;;;;41.50;37.50;;;;;4.31;81.27;101195.97;5094436;27;46420;-73
2022/12/07 08:52:52;;;;;;;;;37.50;35.75;;;;;4.31;81.45;101199.41;5076935;27;45265;-72
2022/12/07 08:55:18;;;;;;;;;40.75;37.00;;;;;4.32;81.68;101197.69;5078268;27;45456;-75
2022/12/07 08:57:43;;;;;;;;;40.50;36.00;;;;;4.37;81.52;101193.34;5076437;28;45372;-74
2022/12/07 09:00:10;;;;;;;;;42.25;36.50;;;;;4.39;81.80;101192.44;5077555;27;45340;-75
2022/12/07 09:02:35;;;;;;;;;38.75;37.00;;;;;4.48;81.28;101191.53;5093816;27;45399;-74
2022/12/07 09:05:01;;;;;;;;;45.00;39.00;;;;;4.57;80.93;101193.22;5079351;27;45292;-74
2022/12/07 09:07:27;;;;;;;;;40.00;37.00;;;;;4.62;80.61;101193.19;5077450;27;45446;-76
2022/12/07 09:09:52;;;;;;;;;34.75;34.25;;;;;4.60;80.09;101181.94;5076850;27;45412;-76
2022/12/07 09:12:17;;;;;;;;;37.25;35.75;;;;;4.52;80.14;101174.13;5076813;27;45345;-74
2022/12/07 09:14:43;;;;;;;;;38.75;34.50;;;;;4.58;80.03;101188.88;5077233;27;45275;-76
2022/12/07 09:17:11;;;;;;;;;41.25;37.25;;;;;4.60;80.49;101189.75;5077230;27;45477;-76
2022/12/07 09:19:38;;;;;;;;;42.25;38.50;;;;;4.62;80.12;101186.25;5074235;28;45673;-76
2022/12/07 09:22:07;;;;;;;;;40.75;38.00;;;;;4.66;80.69;101198.38;5076678;27;45330;-75
2022/12/07 09:24:33;;;;;;;;;38.50;36.00;;;;;4.66;80.35;101195.78;5092889;27;45276;-75
2022/12/07 09:26:58;;;;;;;;;33.75;33.50;;;;;4.62;80.01;101188.84;5077537;27;45239;-76
2022/12/07 09:29:25;;;;;;;;;46.00;40.50;;;;;4.59;80.69;101193.22;5077586;28;45858;-74
2022/12/07 09:31:53;;;;;;;;;45.75;41.00;;;;;4.53;80.37;101184.56;5077111;27;45381;-74
2022/12/07 09:34:21;;;;;;;;;42.75;38.25;;;;;4.49;80.06;101180.25;5077326;27;45928;-76
2022/12/07 09:36:47;;;;;;;;;41.00;37.75;;;;;4.57;80.04;101192.38;5077422;28;45423;-74
2022/12/07 09:39:12;;;;;;;;;45.75;40.25;;;;;4.57;80.45;101181.94;5077401;27;45430;-74
2022/12/07 09:41:44;;;;;;;;;50.75;42.50;;;;;4.68;80.70;101194.03;5076539;27;45243;-75
2022/12/07 09:44:18;;;;;;;;;45.00;40.50;;;;;4.82;80.39;101190.50;5076811;27;45457;-73
2022/12/07 09:46:44;;;;;;;;;47.25;41.50;;;;;4.90;79.64;101188.69;5077391;27;45335;-76
2022/12/07 09:49:22;;;;;;;;;48.00;40.25;;;;;4.96;80.11;101174.72;5076603;28;45318;-73
2022/12/07 09:51:58;;;;;;;;;45.50;39.00;;;;;5.07;80.39;101178.13;5077187;27;45338;-74
2022/12/07 09:54:24;;;;;;;;;42.00;37.25;;;;;5.17;80.59;101178.06;5077070;27;45267;-73
2022/12/07 09:56:49;;;;;;;;;30.00;30.00;;;;;5.19;80.41;101178.91;5076721;27;45514;-71
2022/12/07 09:59:18;;;;;;;;;40.25;37.25;;;;;5.19;80.26;101173.69;5076261;27;45653;-71
2022/12/07 10:01:46;;;;;;;;;43.75;39.00;;;;;5.12;80.86;101173.75;5076390;27;45436;-75
2022/12/07 10:04:18;;;;;;;;;41.00;37.75;;;;;5.17;80.17;101170.22;5076548;27;45477;-75
2022/12/07 10:06:45;;;;;;;;;34.75;33.50;;;;;5.23;80.23;101171.06;5076520;27;45341;-74
2022/12/07 10:09:16;;;;;;;;;40.75;37.00;;;;;5.30;80.60;101171.00;5076400;27;46180;-75
2022/12/07 10:12:11;;;;;;;;;36.75;33.75;;;;;5.41;80.64;101166.53;5076565;27;45381;-75
2022/12/07 10:14:53;;;;;;;;;41.00;37.00;;;;;5.56;81.28;101168.16;5074514;28;45399;-73
2022/12/07 10:17:30;;;;;;;;;46.75;39.75;;;;;5.62;79.58;101157.66;5078371;27;45156;-74
2022/12/07 10:20:12;;;;;;;;;45.50;39.50;;;;;5.82;79.97;101164.41;5094396;27;45555;-73
2022/12/07 10:22:38;;;;;;;;;43.75;37.00;;;;;5.89;79.56;101154.78;5077370;27;45303;-73
2022/12/07 10:25:20;;;;;;;;;43.75;37.00;;;;;6.03;79.93;101159.84;5076309;27;45457;-70
2022/12/07 10:28:03;;;;;;;;;39.75;35.25;;;;;6.06;78.81;101155.47;5076670;27;45480;-71
2022/12/07 10:30:31;;;;;;;;;44.50;38.25;;;;;6.06;78.37;101160.69;5075355;27;45508;-71
2022/12/07 10:32:56;;;;;;;;;39.00;35.75;;;;;6.05;77.58;101160.69;5091261;27;45496;-71
2022/12/07 10:35:26;;;;;;;;;44.00;38.50;;;;;6.06;77.81;101151.97;5075484;27;45299;-71
2022/12/07 10:37:53;;;;;;;;;48.00;40.00;;;;;6.01;78.11;101136.38;5076059;27;45564;-72
2022/12/07 10:40:28;;;;;;;;;47.25;40.50;;;;;6.07;77.91;101143.25;5076184;27;45964;-70
2022/12/07 10:43:16;;;;;;;;;45.75;39.75;;;;;6.05;77.72;101148.50;5076235;28;45311;-72
2022/12/07 10:46:04;;;;;;;;;39.25;35.75;;;;;6.05;78.28;101139.78;5091293;27;45261;-72
2022/12/07 10:48:45;;;;;;;;;35.75;33.50;;;;;6.07;77.23;101143.25;5074379;28;45260;-73
2022/12/07 10:51:44;;;;;;;;;40.00;35.00;;;;;6.07;78.04;101131.06;5074842;28;46617;-73
2022/12/07 10:54:35;;;;;;;;;37.75;35.75;;;;;6.05;77.26;101114.56;5074238;28;45755;-74
2022/12/07 10:57:19;;;;;;;;;30.25;29.50;;;;;6.11;77.70;101110.97;5075871;27;45304;-75
2022/12/07 10:59:50;;;;;;;;;39.75;34.25;;;;;6.09;76.68;101107.53;5076798;27;45523;-74
2022/12/07 11:02:32;;;;;;;;;46.00;40.75;;;;;6.06;76.84;101107.56;5075881;27;45266;-74
2022/12/07 11:05:02;;;;;;;;;44.25;37.50;;;;;6.06;76.97;101107.56;5075084;28;45267;-73
2022/12/07 11:07:43;;;;;;;;;35.00;32.75;;;;;6.04;77.81;101094.56;5077279;28;45322;-76
2022/12/07 11:10:33;;;;;;;;;43.75;38.25;;;;;6.16;76.53;101103.94;5075270;27;45259;-73
2022/12/07 11:13:37;;;;;;;;;36.75;34.75;;;;;6.10;76.86;101091.84;5074214;28;46612;-76
2022/12/07 11:16:24;;;;;;;;;44.00;39.25;;;;;6.05;77.21;101088.44;5075540;27;45475;-76
2022/12/07 11:19:06;;;;;;;;;41.00;36.75;;;;;6.08;77.82;101084.91;5075970;27;45395;-72
2022/12/07 11:21:56;;;;;;;;;38.00;35.25;;;;;6.09;76.44;101081.41;5075921;27;45215;-72
2022/12/07 11:24:34;;;;;;;;;46.50;39.75;;;;;6.04;77.50;101078.00;5075460;27;46259;-73
2022/12/07 11:27:30;;;;;;;;;40.00;36.50;;;;;5.98;76.94;101073.72;5074264;27;45438;-77
2022/12/07 11:30:09;;;;;;;;;44.75;38.75;;;;;5.90;77.71;101076.41;5076234;27;45394;-78
2022/12/07 11:32:49;;;;;;;;;43.25;38.50;;;;;5.84;77.25;101066.03;5075301;27;45501;-76